Lakki Marwat Weather



Lakki Marwat's Current Weather

Temprature 36.68o clear sky

clear sky

Rain: 0 %

Min Temprature36.68o
Max Temprature36.68o
Humidity18
Wind Speed1.48 m/h
Sun Rise05:23:16
Sun Set19:02:26
Current Time: 08-May-2021 15:02:49
Lat/Lon: 32.6079, 70.9114




Lakki Marwat's Geo Location



Lakki Marwat's Weather Forecast

Time Overall Temp Min Temp Max Temp Humidity Wind Speed Rain
08-May-2021 (Sat)
17:00:00 clear sky 36.340 36.340 36.900 18 0.18 m/h 0 %
20:00:00 light rain 32.370 30.520 32.370 27 10.08 m/h 11 %
23:00:00 broken clouds 29.030 29.030 29.030 34 4.23 m/h 0 %
09-May-2021 (Sun)
02:00:00 broken clouds 28.180 28.180 28.180 36 1.61 m/h 0 %
05:00:00 broken clouds 27.500 27.500 27.500 37 1.88 m/h 0 %
08:00:00 few clouds 30.690 30.690 30.690 30 2.5 m/h 0 %
11:00:00 few clouds 35.090 35.090 35.090 23 3.59 m/h 0 %
14:00:00 clear sky 37.700 37.700 37.700 17 1.43 m/h 0 %
17:00:00 clear sky 38.660 38.660 38.660 15 3.75 m/h 0 %
20:00:00 broken clouds 32.700 32.700 32.700 25 8.31 m/h 0 %
23:00:00 broken clouds 30.980 30.980 30.980 29 3.04 m/h 0 %
10-May-2021 (Mon)
02:00:00 overcast clouds 29.700 29.700 29.700 32 3.33 m/h 0 %
05:00:00 overcast clouds 27.850 27.850 27.850 37 1.34 m/h 0 %
08:00:00 overcast clouds 30.390 30.390 30.390 31 0.96 m/h 0 %
11:00:00 overcast clouds 34.330 34.330 34.330 23 1.85 m/h 0 %
14:00:00 overcast clouds 37.630 37.630 37.630 18 2.38 m/h 0 %
17:00:00 broken clouds 38.740 38.740 38.740 15 1.92 m/h 0 %
20:00:00 broken clouds 36.090 36.090 36.090 18 1.97 m/h 0 %
23:00:00 broken clouds 33.870 33.870 33.870 22 1.73 m/h 0 %
11-May-2021 (Tue)
02:00:00 few clouds 30.810 30.810 30.810 29 2.01 m/h 0 %
05:00:00 clear sky 29.380 29.380 29.380 32 2.03 m/h 0 %
08:00:00 clear sky 32.820 32.820 32.820 26 3.48 m/h 0 %
11:00:00 scattered clouds 37.000 37.000 37.000 19 3.23 m/h 0 %
14:00:00 broken clouds 39.500 39.500 39.500 14 1.59 m/h 0 %
17:00:00 scattered clouds 39.620 39.620 39.620 12 7.64 m/h 0 %
20:00:00 broken clouds 30.740 30.740 30.740 32 9.23 m/h 0 %
23:00:00 broken clouds 30.420 30.420 30.420 31 0.79 m/h 0 %
12-May-2021 (Wed)
02:00:00 scattered clouds 28.300 28.300 28.300 36 3.42 m/h 0 %
05:00:00 light rain 25.360 25.360 25.360 48 3.74 m/h 81 %
08:00:00 light rain 27.370 27.370 27.370 40 3.35 m/h 105 %
11:00:00 light rain 32.720 32.720 32.720 25 4.46 m/h 67 %
14:00:00 clear sky 35.360 35.360 35.360 22 5.68 m/h 0 %
17:00:00 light rain 31.670 31.670 31.670 26 8.21 m/h 18 %
20:00:00 broken clouds 28.840 28.840 28.840 34 3.05 m/h 0 %
23:00:00 scattered clouds 25.280 25.280 25.280 54 3.19 m/h 0 %
13-May-2021 (Thu)
02:00:00 few clouds 24.720 24.720 24.720 56 2.18 m/h 0 %
05:00:00 few clouds 24.200 24.200 24.200 58 2.41 m/h 0 %
08:00:00 clear sky 26.180 26.180 26.180 50 1.76 m/h 0 %
11:00:00 clear sky 30.130 30.130 30.130 38 3.09 m/h 0 %
14:00:00 scattered clouds 33.270 33.270 33.270 27 3.77 m/h 0 %

Famous Cities (60)